Polfoss — V2PN7 — position and weather

sailwx.info

Track history (hours):
 
Tides and Currents Weather Stations Pressure Air Temp Water Temp Dewpoint Dewpoint Depression Visibility Wind Speed Wind Dir Waves Ship Positions

Polfoss

Last reported at 2016-Dec-04 17:28 UTC. Time now 2016-Dec-05 08:27 UTC.
Position N 66°54' E 013°20'.

Length 82 m; draft 5.5 m.

Type: Cargo ship. MMSI: 305081000.

Date/timePositionNaut miles runAvg speedWind from/ knotsBaromVisibWave heightAir tempDewpointWater temp
2016-Dec-04 17:28N 66°54' E 013°20'2211.1
2016-Dec-04 15:28N 66°33' E 013°02'8514.3
2016-Dec-04 09:34N 65°13' E 011°54'1514.5
2016-Dec-04 08:33N 65°00' E 011°38'1414.2
2016-Dec-04 07:34N 64°51' E 011°13'6713.4
2016-Dec-04 02:34N 63°55' E 009°47'11 1.8
2016-Dec-03 20:33N 63°46' E 009°33'1613.6
2016-Dec-03 19:24N 63°32' E 009°16'3215.1
2016-Dec-03 17:19N 63°17' E 008°13'1215.5
2016-Dec-03 16:33N 63°12' E 007°51'10 9.6
2016-Dec-03 15:33N 63°03' E 007°40'4 4.0
2016-Dec-03 14:33N 63°07' E 007°39'1515.0
2016-Dec-03 13:34N 63°01' E 007°09'1614.7
2016-Dec-03 12:29N 62°51' E 006°42'8 2.0
2016-Dec-03 08:33N 62°45' E 006°32'1312.4
2016-Dec-03 07:30N 62°53' E 006°53'5 2.6
2016-Dec-03 05:33N 62°49' E 006°56'3029.8
2016-Dec-03 04:33N 62°28' E 006°08'0 0.0
2016-Dec-03 03:33N 62°28' E 006°08'1 1.3
2016-Dec-03 02:33N 62°27' E 006°07'10 9.8
2016-Dec-03 01:33N 62°23' E 005°48'10 8.8
2016-Dec-03 00:22N 62°18' E 005°28'4 2.2
2016-Dec-02 22:32N 62°19' E 005°37'10 9.9
2016-Dec-02 21:33N 62°16' E 005°17'1816.1
2016-Dec-02 20:25N 61°58' E 005°09'1 1.4
2016-Dec-02 19:32N 61°59' E 005°08'3 2.6
2016-Dec-02 18:33N 61°56' E 005°07'1 1.4
2016-Dec-02 17:32N 61°58' E 005°09'7 7.3
2016-Dec-02 16:32N 61°51' E 005°16'9 9.5
2016-Dec-02 15:33N 61°45' E 005°00'9 8.9
2016-Dec-02 14:33N 61°36' E 004°58'8 8.3
2016-Dec-02 13:32N 61°28' E 004°57'9 8.8
2016-Dec-02 12:33N 61°20' E 004°48'8 8.4
2016-Dec-02 11:33N 61°12' E 004°43'1616.3
2016-Dec-02 10:33N 60°56' E 004°46'7575.5
2016-Dec-02 09:33N 59°44' E 005°29'10 9.7
2016-Dec-02 08:32N 59°36' E 005°16'9 9.1
2016-Dec-02 07:33N 59°27' E 005°13'8 7.9
2016-Dec-02 06:31N 59°20' E 005°19'20 8.1
2016-Dec-02 04:06N 59°01' E 005°09'5 9.1
2016-Dec-02 03:33N 58°58' E 005°01'2220.8
2016-Dec-02 02:30N 59°18' E 005°20'1313.8
2016-Dec-02 01:33N 59°05' E 005°21'1313.0
2016-Dec-02 00:33N 58°57' E 005°00'36312.1
2016-Nov-30 18:33N 53°33' E 000°07'7 7.2
2016-Nov-30 17:33N 53°35' W 000°04'0 0.0
2016-Nov-30 16:33N 53°35' W 000°04'0 0.0
2016-Nov-30 15:33N 53°35' W 000°04'0 0.0
2016-Nov-30 14:33N 53°35' W 000°04'0 0.0
2016-Nov-30 13:33N 53°35' W 000°04'0 0.0
2016-Nov-30 12:33N 53°35' W 000°04'0 0.0
2016-Nov-30 11:33N 53°35' W 000°04'0 0.0
2016-Nov-30 10:33N 53°35' W 000°04'0 0.0
2016-Nov-30 09:33N 53°35' W 000°04'0 0.0
2016-Nov-30 08:33N 53°35' W 000°04'0 0.0
2016-Nov-30 07:33N 53°35' W 000°04'0 0.0
2016-Nov-30 06:33N 53°35' W 000°04'0 0.0
2016-Nov-30 05:33N 53°35' W 000°04'1 1.3
2016-Nov-30 04:34N 53°35' W 000°02'3 3.4
2016-Nov-30 03:34N 53°37' W 000°07'3 2.7
2016-Nov-30 02:34N 53°38' W 000°11'0 0.3
2016-Nov-30 01:33N 53°38' W 000°12'0 0.0
2016-Nov-30 00:32N 53°38' W 000°12'0 0.0
2016-Nov-29 23:33N 53°38' W 000°12'0 0.0
2016-Nov-29 22:32N 53°38' W 000°12'0 0.0
2016-Nov-29 21:27N 53°38' W 000°12'0 0.0
2016-Nov-29 20:33N 53°38' W 000°12'0 0.0
2016-Nov-29 19:30N 53°38' W 000°12'0 0.0
2016-Nov-29 18:20N 53°38' W 000°12'0 0.0
2016-Nov-29 17:33N 53°38' W 000°12'0 0.0
2016-Nov-29 16:32N 53°38' W 000°12'0 0.0
2016-Nov-29 15:33N 53°38' W 000°12'0 0.3
2016-Nov-29 14:33N 53°38' W 000°11'1 0.6
2016-Nov-29 13:34N 53°38' W 000°11'1110.7
2016-Nov-29 12:33N 53°34' E 000°06'5114.9
2016-Nov-29 09:09N 53°13' E 001°24'813.8
2016-Nov-29 08:32N 53°10' E 001°37'1313.2
2016-Nov-29 07:33N 53°05' E 001°57'7113.7
2016-Nov-29 02:20N 52°33' E 003°43'1012.9
2016-Nov-29 01:32N 52°31' E 003°59'1414.1
2016-Nov-29 00:33N 52°30' E 004°22'11 5.4
2016-Nov-28 22:31N 52°28' E 004°40'0 0.0
2016-Nov-28 21:31N 52°28' E 004°40'0 0.0
2016-Nov-28 20:33N 52°28' E 004°40'0 0.0
2016-Nov-28 19:32N 52°28' E 004°40'0 0.0
2016-Nov-28 18:32N 52°28' E 004°40'0 0.0
2016-Nov-28 17:31N 52°28' E 004°40'0 0.0
2016-Nov-28 16:31N 52°28' E 004°40'0 0.0
2016-Nov-28 15:33N 52°28' E 004°40'0 0.0
2016-Nov-28 14:29N 52°28' E 004°40'0 0.0
2016-Nov-28 13:32N 52°28' E 004°40'0 0.0
2016-Nov-28 12:31N 52°28' E 004°40'380120.8
2016-Nov-28 09:22N 58°47' E 005°25'7 9.1
2016-Nov-28 08:33N 58°54' E 005°32'3 2.5
2016-Nov-28 07:32N 58°56' E 005°35'2 1.5
2016-Nov-28 06:32N 58°57' E 005°33'10 9.8
2016-Nov-28 05:33N 59°06' E 005°29'399373.3
2016-Nov-28 04:29N 52°28' E 004°40'416430.3
2016-Nov-28 03:31N 59°24' E 005°17'416187.8
2016-Nov-28 01:18N 52°28' E 004°40'0 0.0
2016-Nov-28 00:29N 52°28' E 004°40'0 0.0
2016-Nov-27 23:25N 52°28' E 004°40'1 1.3
2016-Nov-27 22:34N 52°28' E 004°38'5 4.9
2016-Nov-27 21:33N 52°29' E 004°30'1514.7
2016-Nov-27 20:33N 52°44' E 004°29'1515.2
2016-Nov-27 19:33N 52°59' E 004°30'462463.7
2016-Nov-27 18:34N 60°41' E 004°50'10 9.7
2016-Nov-27 17:32N 60°50' E 004°44'9 9.0
2016-Nov-27 16:32N 60°59' E 004°45'416210.0
2016-Nov-27 14:33N 54°03' E 004°57'444441.7
2016-Nov-27 13:33N 61°27' E 004°55'8 8.5
2016-Nov-27 12:33N 61°35' E 004°57'10 9.8
2016-Nov-27 11:33N 61°45' E 004°59'9 9.3
2016-Nov-27 10:33N 61°50' E 005°16'7 6.9
2016-Nov-27 09:33N 61°56' E 005°07'0 0.0
2016-Nov-27 08:33N 61°56' E 005°07'13 9.0
2016-Nov-27 07:10N 62°08' E 005°02'4 6.0
2016-Nov-27 06:33N 62°12' E 005°02'18 7.4
2016-Nov-27 04:06N 62°11' E 005°41'13 8.4
2016-Nov-27 02:33N 62°19' E 006°04'8 7.7
2016-Nov-27 01:32N 62°27' E 006°04'3 3.0
2016-Nov-27 00:33N 62°28' E 006°10'1 0.7
2016-Nov-26 23:33N 62°28' E 006°08'0 0.0
2016-Nov-26 22:33N 62°28' E 006°08'0 0.0
2016-Nov-26 21:33N 62°28' E 006°08'0 0.0
2016-Nov-26 20:33N 62°28' E 006°08'241241.6
2016-Nov-26 19:33N 58°28' E 005°24'1414.2
2016-Nov-26 18:33N 58°42' E 005°24'1414.3
2016-Nov-26 17:34N 58°56' E 005°33'1 1.0
2016-Nov-26 16:33N 58°56' E 005°35'1111.1
2016-Nov-26 15:33N 59°06' E 005°29'205202.8
2016-Nov-26 14:33N 62°29' E 006°18'0 0.0
2016-Nov-26 13:33N 62°29' E 006°18'0 0.0
2016-Nov-26 12:33N 62°29' E 006°18'3 2.2
2016-Nov-26 11:17N 62°29' E 006°12'4 6.0
2016-Nov-26 10:33N 62°34' E 006°11'9 8.1
2016-Nov-26 09:26N 62°40' E 006°25'18 9.6
2016-Nov-26 07:33N 62°55' E 006°47'6 5.7
2016-Nov-26 06:33N 62°59' E 006°56'5 5.0
2016-Nov-26 05:32N 63°01' E 007°06'5 5.3
2016-Nov-26 04:33N 63°03' E 007°17'7 7.2
2016-Nov-26 03:33N 63°06' E 007°31'8 7.7
2016-Nov-26 02:33N 63°08' E 007°48'1 1.4
2016-Nov-26 01:34N 63°07' E 007°46'9547.3
2016-Nov-25 23:33N 62°11' E 004°60'14 9.7
2016-Nov-25 22:07N 62°12' E 005°30'812.1
2016-Nov-25 21:27N 62°12' E 005°47'1112.4
2016-Nov-25 20:33N 62°19' E 006°05'108105.9
2016-Nov-25 19:32N 63°30' E 009°04'9 8.6
2016-Nov-25 18:33N 63°37' E 009°16'10 9.7
2016-Nov-25 17:33N 63°46' E 009°18'11751.7
2016-Nov-25 15:17N 62°29' E 006°05'14 2.4
2016-Nov-25 09:28N 62°39' E 006°24'1112.2
2016-Nov-25 08:33N 62°48' E 006°37'18 8.9
2016-Nov-25 06:30N 63°01' E 007°07'8 8.3
2016-Nov-25 05:33N 63°04' E 007°22'1110.9
2016-Nov-25 04:33N 63°08' E 007°44'1 1.3
2016-Nov-25 03:33N 63°07' E 007°46'6 6.2
2016-Nov-25 02:33N 63°13' E 007°53'1312.5
2016-Nov-25 01:33N 63°19' E 008°17'2713.4
2016-Nov-24 23:34N 63°31' E 009°10'1312.7
2016-Nov-24 22:33N 63°44' E 009°17'1413.6
2016-Nov-24 21:33N 63°56' E 009°28'1413.8
2016-Nov-24 20:32N 64°05' E 009°54'  
Track history (hours):
 
Tides and Currents Weather Stations Pressure Air Temp Water Temp Dewpoint Dewpoint Depression Visibility Wind Speed Wind Dir Waves Ship Positions

Polfoss

Last reported at 2016-Dec-04 17:28 UTC. Time now 2016-Dec-05 08:27 UTC.
Position N 66°54' E 013°20'.

Length 82 m; draft 5.5 m.

Type: Cargo ship. MMSI: 305081000.

Date/timePositionNaut miles runAvg speedWind from/ knotsBaromVisibWave heightAir tempDewpointWater temp
2016-Dec-04 17:28N 66°54' E 013°20'2211.1
2016-Dec-04 15:28N 66°33' E 013°02'8514.3
2016-Dec-04 09:34N 65°13' E 011°54'1514.5
2016-Dec-04 08:33N 65°00' E 011°38'1414.2
2016-Dec-04 07:34N 64°51' E 011°13'6713.4
2016-Dec-04 02:34N 63°55' E 009°47'11 1.8
2016-Dec-03 20:33N 63°46' E 009°33'1613.6
2016-Dec-03 19:24N 63°32' E 009°16'3215.1
2016-Dec-03 17:19N 63°17' E 008°13'1215.5
2016-Dec-03 16:33N 63°12' E 007°51'10 9.6
2016-Dec-03 15:33N 63°03' E 007°40'4 4.0
2016-Dec-03 14:33N 63°07' E 007°39'1515.0
2016-Dec-03 13:34N 63°01' E 007°09'1614.7
2016-Dec-03 12:29N 62°51' E 006°42'8 2.0
2016-Dec-03 08:33N 62°45' E 006°32'1312.4
2016-Dec-03 07:30N 62°53' E 006°53'5 2.6
2016-Dec-03 05:33N 62°49' E 006°56'3029.8
2016-Dec-03 04:33N 62°28' E 006°08'0 0.0
2016-Dec-03 03:33N 62°28' E 006°08'1 1.3
2016-Dec-03 02:33N 62°27' E 006°07'10 9.8
2016-Dec-03 01:33N 62°23' E 005°48'10 8.8
2016-Dec-03 00:22N 62°18' E 005°28'4 2.2
2016-Dec-02 22:32N 62°19' E 005°37'10 9.9
2016-Dec-02 21:33N 62°16' E 005°17'1816.1
2016-Dec-02 20:25N 61°58' E 005°09'1 1.4
2016-Dec-02 19:32N 61°59' E 005°08'3 2.6
2016-Dec-02 18:33N 61°56' E 005°07'1 1.4
2016-Dec-02 17:32N 61°58' E 005°09'7 7.3
2016-Dec-02 16:32N 61°51' E 005°16'9 9.5
2016-Dec-02 15:33N 61°45' E 005°00'9 8.9
2016-Dec-02 14:33N 61°36' E 004°58'8 8.3
2016-Dec-02 13:32N 61°28' E 004°57'9 8.8
2016-Dec-02 12:33N 61°20' E 004°48'8 8.4
2016-Dec-02 11:33N 61°12' E 004°43'1616.3
2016-Dec-02 10:33N 60°56' E 004°46'7575.5
2016-Dec-02 09:33N 59°44' E 005°29'10 9.7
2016-Dec-02 08:32N 59°36' E 005°16'9 9.1
2016-Dec-02 07:33N 59°27' E 005°13'8 7.9
2016-Dec-02 06:31N 59°20' E 005°19'20 8.1
2016-Dec-02 04:06N 59°01' E 005°09'5 9.1
2016-Dec-02 03:33N 58°58' E 005°01'2220.8
2016-Dec-02 02:30N 59°18' E 005°20'1313.8
2016-Dec-02 01:33N 59°05' E 005°21'1313.0
2016-Dec-02 00:33N 58°57' E 005°00'36312.1
2016-Nov-30 18:33N 53°33' E 000°07'7 7.2
2016-Nov-30 17:33N 53°35' W 000°04'0 0.0
2016-Nov-30 16:33N 53°35' W 000°04'0 0.0
2016-Nov-30 15:33N 53°35' W 000°04'0 0.0
2016-Nov-30 14:33N 53°35' W 000°04'0 0.0
2016-Nov-30 13:33N 53°35' W 000°04'0 0.0
2016-Nov-30 12:33N 53°35' W 000°04'0 0.0
2016-Nov-30 11:33N 53°35' W 000°04'0 0.0
2016-Nov-30 10:33N 53°35' W 000°04'0 0.0
2016-Nov-30 09:33N 53°35' W 000°04'0 0.0
2016-Nov-30 08:33N 53°35' W 000°04'0 0.0
2016-Nov-30 07:33N 53°35' W 000°04'0 0.0
2016-Nov-30 06:33N 53°35' W 000°04'0 0.0
2016-Nov-30 05:33N 53°35' W 000°04'1 1.3
2016-Nov-30 04:34N 53°35' W 000°02'3 3.4
2016-Nov-30 03:34N 53°37' W 000°07'3 2.7
2016-Nov-30 02:34N 53°38' W 000°11'0 0.3
2016-Nov-30 01:33N 53°38' W 000°12'0 0.0
2016-Nov-30 00:32N 53°38' W 000°12'0 0.0
2016-Nov-29 23:33N 53°38' W 000°12'0 0.0
2016-Nov-29 22:32N 53°38' W 000°12'0 0.0
2016-Nov-29 21:27N 53°38' W 000°12'0 0.0
2016-Nov-29 20:33N 53°38' W 000°12'0 0.0
2016-Nov-29 19:30N 53°38' W 000°12'0 0.0
2016-Nov-29 18:20N 53°38' W 000°12'0 0.0
2016-Nov-29 17:33N 53°38' W 000°12'0 0.0
2016-Nov-29 16:32N 53°38' W 000°12'0 0.0
2016-Nov-29 15:33N 53°38' W 000°12'0 0.3
2016-Nov-29 14:33N 53°38' W 000°11'1 0.6
2016-Nov-29 13:34N 53°38' W 000°11'1110.7
2016-Nov-29 12:33N 53°34' E 000°06'5114.9
2016-Nov-29 09:09N 53°13' E 001°24'813.8
2016-Nov-29 08:32N 53°10' E 001°37'1313.2
2016-Nov-29 07:33N 53°05' E 001°57'7113.7
2016-Nov-29 02:20N 52°33' E 003°43'1012.9
2016-Nov-29 01:32N 52°31' E 003°59'1414.1
2016-Nov-29 00:33N 52°30' E 004°22'11 5.4
2016-Nov-28 22:31N 52°28' E 004°40'0 0.0
2016-Nov-28 21:31N 52°28' E 004°40'0 0.0
2016-Nov-28 20:33N 52°28' E 004°40'0 0.0
2016-Nov-28 19:32N 52°28' E 004°40'0 0.0
2016-Nov-28 18:32N 52°28' E 004°40'0 0.0
2016-Nov-28 17:31N 52°28' E 004°40'0 0.0
2016-Nov-28 16:31N 52°28' E 004°40'0 0.0
2016-Nov-28 15:33N 52°28' E 004°40'0 0.0
2016-Nov-28 14:29N 52°28' E 004°40'0 0.0
2016-Nov-28 13:32N 52°28' E 004°40'0 0.0
2016-Nov-28 12:31N 52°28' E 004°40'380120.8
2016-Nov-28 09:22N 58°47' E 005°25'7 9.1
2016-Nov-28 08:33N 58°54' E 005°32'3 2.5
2016-Nov-28 07:32N 58°56' E 005°35'2 1.5
2016-Nov-28 06:32N 58°57' E 005°33'10 9.8
2016-Nov-28 05:33N 59°06' E 005°29'399373.3
2016-Nov-28 04:29N 52°28' E 004°40'416430.3
2016-Nov-28 03:31N 59°24' E 005°17'416187.8
2016-Nov-28 01:18N 52°28' E 004°40'0 0.0
2016-Nov-28 00:29N 52°28' E 004°40'0 0.0
2016-Nov-27 23:25N 52°28' E 004°40'1 1.3
2016-Nov-27 22:34N 52°28' E 004°38'5 4.9
2016-Nov-27 21:33N 52°29' E 004°30'1514.7
2016-Nov-27 20:33N 52°44' E 004°29'1515.2
2016-Nov-27 19:33N 52°59' E 004°30'462463.7
2016-Nov-27 18:34N 60°41' E 004°50'10 9.7
2016-Nov-27 17:32N 60°50' E 004°44'9 9.0
2016-Nov-27 16:32N 60°59' E 004°45'416210.0
2016-Nov-27 14:33N 54°03' E 004°57'444441.7
2016-Nov-27 13:33N 61°27' E 004°55'8 8.5
2016-Nov-27 12:33N 61°35' E 004°57'10 9.8
2016-Nov-27 11:33N 61°45' E 004°59'9 9.3
2016-Nov-27 10:33N 61°50' E 005°16'7 6.9
2016-Nov-27 09:33N 61°56' E 005°07'0 0.0
2016-Nov-27 08:33N 61°56' E 005°07'13 9.0
2016-Nov-27 07:10N 62°08' E 005°02'4 6.0
2016-Nov-27 06:33N 62°12' E 005°02'18 7.4
2016-Nov-27 04:06N 62°11' E 005°41'13 8.4
2016-Nov-27 02:33N 62°19' E 006°04'8 7.7
2016-Nov-27 01:32N 62°27' E 006°04'3 3.0
2016-Nov-27 00:33N 62°28' E 006°10'1 0.7
2016-Nov-26 23:33N 62°28' E 006°08'0 0.0
2016-Nov-26 22:33N 62°28' E 006°08'0 0.0
2016-Nov-26 21:33N 62°28' E 006°08'0 0.0
2016-Nov-26 20:33N 62°28' E 006°08'241241.6
2016-Nov-26 19:33N 58°28' E 005°24'1414.2
2016-Nov-26 18:33N 58°42' E 005°24'1414.3
2016-Nov-26 17:34N 58°56' E 005°33'1 1.0
2016-Nov-26 16:33N 58°56' E 005°35'1111.1
2016-Nov-26 15:33N 59°06' E 005°29'205202.8
2016-Nov-26 14:33N 62°29' E 006°18'0 0.0
2016-Nov-26 13:33N 62°29' E 006°18'0 0.0
2016-Nov-26 12:33N 62°29' E 006°18'3 2.2
2016-Nov-26 11:17N 62°29' E 006°12'4 6.0
2016-Nov-26 10:33N 62°34' E 006°11'9 8.1
2016-Nov-26 09:26N 62°40' E 006°25'18 9.6
2016-Nov-26 07:33N 62°55' E 006°47'6 5.7
2016-Nov-26 06:33N 62°59' E 006°56'5 5.0
2016-Nov-26 05:32N 63°01' E 007°06'5 5.3
2016-Nov-26 04:33N 63°03' E 007°17'7 7.2
2016-Nov-26 03:33N 63°06' E 007°31'8 7.7
2016-Nov-26 02:33N 63°08' E 007°48'1 1.4
2016-Nov-26 01:34N 63°07' E 007°46'9547.3
2016-Nov-25 23:33N 62°11' E 004°60'14 9.7
2016-Nov-25 22:07N 62°12' E 005°30'812.1
2016-Nov-25 21:27N 62°12' E 005°47'1112.4
2016-Nov-25 20:33N 62°19' E 006°05'108105.9
2016-Nov-25 19:32N 63°30' E 009°04'9 8.6
2016-Nov-25 18:33N 63°37' E 009°16'10 9.7
2016-Nov-25 17:33N 63°46' E 009°18'11751.7
2016-Nov-25 15:17N 62°29' E 006°05'14 2.4
2016-Nov-25 09:28N 62°39' E 006°24'1112.2
2016-Nov-25 08:33N 62°48' E 006°37'18 8.9
2016-Nov-25 06:30N 63°01' E 007°07'8 8.3
2016-Nov-25 05:33N 63°04' E 007°22'1110.9
2016-Nov-25 04:33N 63°08' E 007°44'1 1.3
2016-Nov-25 03:33N 63°07' E 007°46'6 6.2
2016-Nov-25 02:33N 63°13' E 007°53'1312.5
2016-Nov-25 01:33N 63°19' E 008°17'2713.4
2016-Nov-24 23:34N 63°31' E 009°10'1312.7
2016-Nov-24 22:33N 63°44' E 009°17'1413.6
2016-Nov-24 21:33N 63°56' E 009°28'1413.8
2016-Nov-24 20:32N 64°05' E 009°54'  

Dump ship's entire track history